createdAt,value
2018-10-17T00:00:06.160Z,97214.66
2018-10-17T00:01:41.775Z,97214.73
2018-10-17T00:03:17.434Z,97211.59
2018-10-17T00:04:53.761Z,97215.09
2018-10-17T00:06:29.728Z,97214.49
2018-10-17T00:08:05.139Z,97218.06
2018-10-17T00:09:40.658Z,97216.47
2018-10-17T00:11:17.256Z,97215.80
2018-10-17T00:12:52.823Z,97211.59
2018-10-17T00:14:28.054Z,97212.09
2018-10-17T00:16:03.562Z,97208.05
2018-10-17T00:17:43.925Z,97207.45
2018-10-17T00:19:21.001Z,97211.69
2018-10-17T00:20:56.613Z,97209.91
2018-10-17T00:22:31.850Z,97211.48
2018-10-17T00:24:07.558Z,97204.81
2018-10-17T00:25:43.322Z,97210.56
2018-10-17T00:27:18.629Z,97206.89
2018-10-17T00:28:54.044Z,97207.05
2018-10-17T00:30:29.232Z,97209.52
2018-10-17T00:32:04.758Z,97205.42
2018-10-17T00:33:41.311Z,97203.66
2018-10-17T00:35:17.485Z,97207.38
2018-10-17T00:36:53.143Z,97202.19
2018-10-17T00:38:28.445Z,97206.09
2018-10-17T00:40:05.130Z,97198.64
2018-10-17T00:41:40.851Z,97205.79
2018-10-17T00:43:16.640Z,97205.25
2018-10-17T00:44:54.270Z,97202.18
2018-10-17T00:46:29.796Z,97198.05
2018-10-17T00:48:05.331Z,97193.87
2018-10-17T00:49:40.671Z,97199.45
2018-10-17T00:51:16.760Z,97192.33
2018-10-17T00:52:52.727Z,97190.53
2018-10-17T00:54:28.374Z,97193.80
2018-10-17T00:56:04.279Z,97189.83
2018-10-17T00:57:39.452Z,97190.73
2018-10-17T00:59:15.979Z,97186.16
2018-10-17T01:00:51.476Z,97186.83
2018-10-17T01:02:26.751Z,97188.86
2018-10-17T01:04:02.887Z,97187.84
2018-10-17T01:05:38.367Z,97186.70
2018-10-17T01:07:13.946Z,97188.00
2018-10-17T01:08:49.374Z,97188.69
2018-10-17T01:10:24.953Z,97185.65
2018-10-17T01:12:00.788Z,97190.34
2018-10-17T01:13:35.826Z,97183.66
2018-10-17T01:15:11.985Z,97191.38
2018-10-17T01:16:47.122Z,97187.97
2018-10-17T01:18:22.210Z,97186.17
2018-10-17T01:19:57.531Z,97191.55
2018-10-17T01:21:33.112Z,97190.27
2018-10-17T01:23:08.899Z,97179.72
2018-10-17T01:24:45.234Z,97179.09
2018-10-17T01:26:21.028Z,97177.84
2018-10-17T01:28:01.115Z,97183.58
2018-10-17T01:29:36.534Z,97177.94
2018-10-17T01:31:12.504Z,97177.90
2018-10-17T01:32:47.833Z,97180.39
2018-10-17T01:34:23.693Z,97176.45
2018-10-17T01:35:58.891Z,97175.27
2018-10-17T01:37:34.529Z,97172.27
2018-10-17T01:39:11.331Z,97173.89
2018-10-17T01:40:46.816Z,97177.59
2018-10-17T01:42:22.594Z,97173.39
2018-10-17T01:43:57.921Z,97172.09
2018-10-17T01:45:33.251Z,97176.09
2018-10-17T01:47:08.796Z,97170.63
2018-10-17T01:48:44.359Z,97175.33
2018-10-17T01:50:20.260Z,97168.86
2018-10-17T01:51:55.534Z,97173.66
2018-10-17T01:53:31.341Z,97170.61
2018-10-17T01:55:07.666Z,97168.91
2018-10-17T01:56:43.033Z,97169.55
2018-10-17T01:58:19.808Z,97169.45
2018-10-17T01:59:55.111Z,97166.39
2018-10-17T02:01:32.661Z,97167.70
2018-10-17T02:03:07.997Z,97161.59
2018-10-17T02:04:43.522Z,97157.43
2018-10-17T02:06:19.416Z,97160.00
2018-10-17T02:07:54.712Z,97157.56
2018-10-17T02:09:31.352Z,97156.47
2018-10-17T02:11:07.642Z,97156.83
2018-10-17T02:12:43.285Z,97148.69
2018-10-17T02:14:18.283Z,97153.48
2018-10-17T02:15:54.647Z,97155.11
2018-10-17T02:17:29.754Z,97155.62
2018-10-17T02:19:04.884Z,97153.12
2018-10-17T02:20:40.917Z,97154.53
2018-10-17T02:22:16.502Z,97147.00
2018-10-17T02:23:51.600Z,97148.36
2018-10-17T02:25:26.722Z,97147.70
2018-10-17T02:27:01.915Z,97150.36
2018-10-17T02:28:37.784Z,97147.27
2018-10-17T02:30:14.567Z,97147.70
2018-10-17T02:31:50.043Z,97143.43
2018-10-17T02:33:25.259Z,97144.59
2018-10-17T02:35:05.844Z,97148.63
2018-10-17T02:36:41.320Z,97147.66
2018-10-17T02:38:16.692Z,97144.86
2018-10-17T02:39:51.904Z,97143.66
2018-10-17T02:41:28.243Z,97146.92
2018-10-17T02:43:03.902Z,97141.45
2018-10-17T02:44:39.240Z,97136.16
2018-10-17T02:46:14.296Z,97135.78
2018-10-17T02:47:49.368Z,97133.86
2018-10-17T02:49:25.728Z,97134.85
2018-10-17T02:51:01.579Z,97130.91
2018-10-17T02:52:42.318Z,97128.70
2018-10-17T02:54:17.502Z,97132.02
2018-10-17T02:55:52.914Z,97126.87
2018-10-17T02:57:28.136Z,97129.48
2018-10-17T02:59:05.065Z,97128.55
2018-10-17T03:00:40.365Z,97132.14
2018-10-17T03:02:15.517Z,97130.89
2018-10-17T03:03:50.841Z,97132.27
2018-10-17T03:05:26.034Z,97131.08
2018-10-17T03:07:01.876Z,97130.01
2018-10-17T03:08:37.548Z,97127.19
2018-10-17T03:10:12.617Z,97126.42
2018-10-17T03:11:48.084Z,97129.08
2018-10-17T03:13:23.383Z,97136.02
2018-10-17T03:14:59.332Z,97133.81
2018-10-17T03:16:34.301Z,97133.91
2018-10-17T03:18:09.512Z,97135.22
2018-10-17T03:19:44.802Z,97135.70
2018-10-17T03:21:20.147Z,97135.22
2018-10-17T03:22:55.893Z,97131.38
2018-10-17T03:24:31.013Z,97131.38
2018-10-17T03:26:06.424Z,97133.17
2018-10-17T03:27:41.816Z,97140.00
2018-10-17T03:29:17.145Z,97142.82
2018-10-17T03:30:55.649Z,97141.41
2018-10-17T03:32:32.464Z,97151.02
2018-10-17T03:34:10.000Z,97152.38
2018-10-17T03:35:45.296Z,97153.15
2018-10-17T03:37:20.366Z,97153.80
2018-10-17T03:38:55.673Z,97159.55
2018-10-17T03:40:33.244Z,97146.94
2018-10-17T03:42:09.221Z,97154.30
2018-10-17T03:43:44.670Z,97156.27
2018-10-17T03:45:20.577Z,97157.32
2018-10-17T03:46:56.032Z,97155.53
2018-10-17T03:48:32.419Z,97163.39
2018-10-17T03:50:08.200Z,97159.98
2018-10-17T03:51:44.036Z,97162.03
2018-10-17T03:53:23.449Z,97163.52
2018-10-17T03:54:58.737Z,97162.84
2018-10-17T03:56:36.267Z,97167.36
2018-10-17T03:58:11.735Z,97165.48
2018-10-17T03:59:46.949Z,97165.48
2018-10-17T04:01:24.486Z,97162.88
2018-10-17T04:03:00.033Z,97159.47
2018-10-17T04:04:37.861Z,97160.70
2018-10-17T04:06:15.067Z,97160.02
2018-10-17T04:07:51.032Z,97160.09
2018-10-17T04:09:26.753Z,97160.18
2018-10-17T04:11:02.335Z,97167.30
2018-10-17T04:12:37.738Z,97164.13
2018-10-17T04:14:12.912Z,97160.03
2018-10-17T04:15:48.221Z,97162.52
2018-10-17T04:17:25.157Z,97161.48
2018-10-17T04:19:03.867Z,97163.53
2018-10-17T04:20:39.573Z,97164.56
2018-10-17T04:22:15.379Z,97167.20
2018-10-17T04:23:51.921Z,97168.48
2018-10-17T04:25:30.243Z,97166.86
2018-10-17T04:27:05.540Z,97167.71
2018-10-17T04:28:40.699Z,97165.27
2018-10-17T04:30:17.380Z,97167.66
2018-10-17T04:31:53.591Z,97166.03
2018-10-17T04:33:29.156Z,97165.69
2018-10-17T04:35:04.504Z,97167.56
2018-10-17T04:36:40.265Z,97160.72
2018-10-17T04:38:17.424Z,97167.64
2018-10-17T04:39:53.045Z,97165.24
2018-10-17T04:41:28.292Z,97164.16
2018-10-17T04:43:04.159Z,97165.09
2018-10-17T04:44:39.544Z,97167.14
2018-10-17T04:46:15.270Z,97168.08
2018-10-17T04:47:51.116Z,97180.10
2018-10-17T04:49:27.462Z,97173.87
2018-10-17T04:51:05.363Z,97180.52
2018-10-17T04:52:41.044Z,97179.61
2018-10-17T04:54:17.231Z,97178.50
2018-10-17T04:55:53.014Z,97175.50
2018-10-17T04:57:28.367Z,97180.10
2018-10-17T04:59:03.667Z,97177.66
2018-10-17T05:00:40.314Z,97178.84
2018-10-17T05:02:17.531Z,97172.95
2018-10-17T05:03:54.160Z,97180.20
2018-10-17T05:05:29.667Z,97174.39
2018-10-17T05:07:09.356Z,97183.63
2018-10-17T05:08:44.973Z,97180.02
2018-10-17T05:10:20.366Z,97184.13
2018-10-17T05:11:56.146Z,97180.70
2018-10-17T05:13:32.895Z,97178.58
2018-10-17T05:15:09.334Z,97173.54
2018-10-17T05:16:44.652Z,97174.48
2018-10-17T05:18:20.283Z,97179.41
2018-10-17T05:19:58.340Z,97180.77
2018-10-17T05:21:34.017Z,97171.90
2018-10-17T05:23:09.402Z,97174.44
2018-10-17T05:24:44.968Z,97177.44
2018-10-17T05:26:21.750Z,97183.23
2018-10-17T05:27:57.387Z,97180.56
2018-10-17T05:29:32.498Z,97177.56
2018-10-17T05:31:07.934Z,97181.92
2018-10-17T05:32:43.066Z,97184.83
2018-10-17T05:34:19.276Z,97182.95
2018-10-17T05:35:54.555Z,97182.39
2018-10-17T05:37:29.992Z,97183.96
2018-10-17T05:39:06.105Z,97188.91
2018-10-17T05:40:41.718Z,97186.35
2018-10-17T05:42:18.466Z,97185.97
2018-10-17T05:43:54.849Z,97185.34
2018-10-17T05:45:31.087Z,97185.69
2018-10-17T05:47:07.124Z,97189.39
2018-10-17T05:48:47.276Z,97184.88
2018-10-17T05:50:23.356Z,97187.77
2018-10-17T05:51:59.174Z,97186.74
2018-10-17T05:53:34.676Z,97181.75
2018-10-17T05:55:10.911Z,97180.94
2018-10-17T05:56:48.105Z,97183.33
2018-10-17T05:58:24.890Z,97183.13
2018-10-17T06:00:01.434Z,97179.57
2018-10-17T06:03:24.401Z,97181.95
2018-10-17T06:06:42.426Z,97189.77
2018-10-17T06:08:18.380Z,97185.50
2018-10-17T06:09:57.729Z,97192.00
2018-10-17T06:11:35.181Z,97188.33
2018-10-17T06:13:11.448Z,97190.20
2018-10-17T06:14:50.278Z,97194.13
2018-10-17T06:16:30.280Z,97191.65
2018-10-17T06:18:10.852Z,97197.59
2018-10-17T06:19:49.354Z,97194.27
2018-10-17T06:21:26.843Z,97196.73
2018-10-17T06:23:02.094Z,97198.88
2018-10-17T06:24:39.040Z,97200.31
2018-10-17T06:26:16.211Z,97196.22
2018-10-17T06:27:53.730Z,97202.07
2018-10-17T06:29:29.543Z,97200.39
2018-10-17T06:31:05.598Z,97195.34
2018-10-17T06:32:42.439Z,97203.16
2018-10-17T06:34:18.799Z,97197.33
2018-10-17T06:35:55.712Z,97201.03
2018-10-17T06:37:34.030Z,97199.91
2018-10-17T06:39:11.725Z,97201.34
2018-10-17T06:40:48.696Z,97202.95
2018-10-17T06:42:26.835Z,97204.75
2018-10-17T06:44:04.335Z,97206.35
2018-10-17T06:45:41.192Z,97197.80
2018-10-17T06:47:17.488Z,97200.31
2018-10-17T06:48:52.777Z,97199.77
2018-10-17T06:50:28.700Z,97199.53
2018-10-17T06:52:05.233Z,97201.02
2018-10-17T06:53:41.439Z,97199.97
2018-10-17T06:55:19.926Z,97199.40
2018-10-17T06:56:56.429Z,97196.58
2018-10-17T06:58:34.243Z,97200.30
2018-10-17T07:00:10.763Z,97195.17
2018-10-17T07:01:47.498Z,97200.88
2018-10-17T07:03:30.699Z,97197.88
2018-10-17T07:05:07.781Z,97191.13
2018-10-17T07:06:47.331Z,97198.32
2018-10-17T07:08:24.553Z,97197.65
2018-10-17T07:10:00.655Z,97192.34
2018-10-17T07:11:37.242Z,97189.37
2018-10-17T07:13:13.349Z,97189.91
2018-10-17T07:16:32.745Z,97192.02
2018-10-17T07:18:15.011Z,97198.92
2018-10-17T07:19:51.227Z,97194.91
2018-10-17T07:21:30.629Z,97192.65
2018-10-17T07:23:08.655Z,97193.73
2018-10-17T07:24:47.265Z,97189.97
2018-10-17T07:26:30.974Z,97191.50
2018-10-17T07:28:08.740Z,97189.73
2018-10-17T07:29:44.644Z,97199.39
2018-10-17T07:31:21.083Z,97196.95
2018-10-17T07:32:58.130Z,97194.09
2018-10-17T07:34:33.877Z,97190.13
2018-10-17T07:36:15.245Z,97195.05
2018-10-17T07:37:55.052Z,97197.96
2018-10-17T07:39:31.285Z,97192.92
2018-10-17T07:41:07.806Z,97198.16
2018-10-17T07:42:44.953Z,97199.53
2018-10-17T07:44:22.439Z,97192.95
2018-10-17T07:45:59.346Z,97190.36
2018-10-17T07:47:35.289Z,97184.53
2018-10-17T07:49:11.482Z,97191.55
2018-10-17T07:50:47.412Z,97184.97
2018-10-17T07:52:23.975Z,97190.91
2018-10-17T07:54:00.094Z,97188.87
2018-10-17T07:55:36.654Z,97187.47
2018-10-17T07:57:14.800Z,97182.82
2018-10-17T07:58:51.155Z,97178.67
2018-10-17T08:00:26.931Z,97180.91
2018-10-17T08:02:05.628Z,97177.94
2018-10-17T08:03:45.198Z,97184.64
2018-10-17T08:05:24.412Z,97183.35
2018-10-17T08:07:01.651Z,97179.00
2018-10-17T08:08:38.024Z,97182.48
2018-10-17T08:10:15.160Z,97182.70
2018-10-17T08:11:52.235Z,97182.16
2018-10-17T08:14:00.810Z,97181.79
2018-10-17T08:15:40.704Z,97182.30
2018-10-17T08:17:16.653Z,97184.88
2018-10-17T08:18:53.444Z,97185.25
2018-10-17T08:20:29.206Z,97185.16
2018-10-17T08:22:06.718Z,97171.70
2018-10-17T08:23:43.597Z,97178.31
2018-10-17T08:25:19.460Z,97176.23
2018-10-17T08:26:55.684Z,97178.48
2018-10-17T08:28:36.378Z,97176.76
2018-10-17T08:30:15.875Z,97177.78
2018-10-17T08:31:52.816Z,97172.16
2018-10-17T08:33:30.599Z,97165.87
2018-10-17T08:35:09.392Z,97171.30
2018-10-17T08:36:50.254Z,97169.69
2018-10-17T08:38:27.950Z,97168.61
2018-10-17T08:40:04.841Z,97168.17
2018-10-17T08:41:45.021Z,97163.34
2018-10-17T08:43:26.071Z,97158.23
2018-10-17T08:45:04.781Z,97164.45
2018-10-17T08:46:41.984Z,97160.41
2018-10-17T08:48:19.694Z,97163.14
2018-10-17T08:49:59.450Z,97160.83
2018-10-17T08:51:35.827Z,97162.09
2018-10-17T08:53:12.440Z,97159.27
2018-10-17T08:54:50.750Z,97153.51
2018-10-17T08:56:27.498Z,97157.93
2018-10-17T08:58:03.909Z,97158.44
2018-10-17T08:59:42.198Z,97162.01
2018-10-17T09:01:18.914Z,97159.59
2018-10-17T09:02:55.899Z,97159.59
2018-10-17T09:04:35.110Z,97161.75
2018-10-17T09:06:14.047Z,97154.16
2018-10-17T09:07:54.949Z,97158.47
2018-10-17T09:09:32.246Z,97159.48
2018-10-17T09:11:08.315Z,97159.84
2018-10-17T09:12:45.171Z,97159.48
2018-10-17T09:14:24.761Z,97158.19
2018-10-17T09:16:01.387Z,97156.41
2018-10-17T09:17:40.600Z,97162.59
2018-10-17T09:19:16.603Z,97159.23
2018-10-17T09:21:00.845Z,97163.06
2018-10-17T09:22:36.415Z,97163.25
2018-10-17T09:24:13.569Z,97171.24
2018-10-17T09:25:50.384Z,97164.63
2018-10-17T09:27:26.748Z,97169.42
2018-10-17T09:29:05.936Z,97167.41
2018-10-17T09:30:43.908Z,97163.94
2018-10-17T09:32:20.645Z,97163.08
2018-10-17T09:33:58.472Z,97164.20
2018-10-17T09:35:39.573Z,97164.71
2018-10-17T09:37:18.276Z,97163.27
2018-10-17T09:38:53.898Z,97159.14
2018-10-17T09:40:29.640Z,97159.31
2018-10-17T09:42:05.484Z,97161.20
2018-10-17T09:43:42.271Z,97163.08
2018-10-17T09:45:18.418Z,97164.40
2018-10-17T09:46:54.633Z,97157.61
2018-10-17T09:48:30.509Z,97159.53
2018-10-17T09:50:07.041Z,97165.84
2018-10-17T09:51:44.900Z,97167.97
2018-10-17T09:53:24.592Z,97161.02
2018-10-17T09:55:01.565Z,97163.33
2018-10-17T09:56:39.798Z,97162.07
2018-10-17T09:58:16.663Z,97161.47
2018-10-17T09:59:56.339Z,97164.78
2018-10-17T10:01:39.051Z,97158.47
2018-10-17T10:03:15.345Z,97156.70
2018-10-17T10:04:55.381Z,97150.50
2018-10-17T10:06:32.569Z,97148.97
2018-10-17T10:08:09.838Z,97148.00
2018-10-17T10:09:46.243Z,97149.09
2018-10-17T10:11:22.260Z,97150.06
2018-10-17T10:12:57.795Z,97149.30
2018-10-17T10:14:34.623Z,97148.33
2018-10-17T10:16:10.704Z,97147.80
2018-10-17T10:17:46.655Z,97147.09
2018-10-17T10:19:22.500Z,97147.04
2018-10-17T10:21:00.063Z,97147.75
2018-10-17T10:22:41.285Z,97149.88
2018-10-17T10:24:19.499Z,97144.44
2018-10-17T10:25:59.735Z,97144.32
2018-10-17T10:27:37.616Z,97139.53
2018-10-17T10:29:14.310Z,97152.03
2018-10-17T10:30:51.229Z,97146.12
2018-10-17T10:32:27.651Z,97145.14
2018-10-17T10:34:04.401Z,97143.84
2018-10-17T10:35:48.787Z,97138.22
2018-10-17T10:37:27.351Z,97139.50
2018-10-17T10:39:05.250Z,97138.54
2018-10-17T10:40:42.372Z,97139.88
2018-10-17T10:42:19.224Z,97139.06
2018-10-17T10:43:55.606Z,97144.95
2018-10-17T10:45:34.647Z,97143.44
2018-10-17T10:47:13.887Z,97140.25
2018-10-17T10:48:50.206Z,97135.72
2018-10-17T10:50:26.619Z,97138.52
2018-10-17T10:52:04.390Z,97140.25
2018-10-17T10:53:44.676Z,97140.27
2018-10-17T10:55:22.110Z,97137.48
2018-10-17T10:56:58.700Z,97135.36
2018-10-17T10:58:34.744Z,97137.67
2018-10-17T11:00:13.242Z,97137.66
2018-10-17T11:01:49.588Z,97133.75
2018-10-17T11:03:27.768Z,97130.86
2018-10-17T11:05:03.562Z,97125.91
2018-10-17T11:06:39.079Z,97129.22
2018-10-17T11:08:15.802Z,97124.95
2018-10-17T11:09:53.663Z,97129.05
2018-10-17T11:11:30.040Z,97125.97
2018-10-17T11:13:05.421Z,97120.39
2018-10-17T11:14:43.121Z,97114.59
2018-10-17T11:16:21.798Z,97119.48
2018-10-17T11:18:00.516Z,97118.33
2018-10-17T11:19:38.320Z,97117.58
2018-10-17T11:21:15.497Z,97115.31
2018-10-17T11:22:51.382Z,97119.55
2018-10-17T11:24:27.644Z,97118.45
2018-10-17T11:26:05.762Z,97114.92
2018-10-17T11:27:42.071Z,97113.97
2018-10-17T11:29:20.519Z,97113.54
2018-10-17T11:30:59.915Z,97113.30
2018-10-17T11:34:19.329Z,97110.19
2018-10-17T11:35:58.505Z,97109.91
2018-10-17T11:37:35.503Z,97117.41
2018-10-17T11:39:14.070Z,97116.97
2018-10-17T11:40:53.916Z,97108.12
2018-10-17T11:42:31.041Z,97107.62
2018-10-17T11:44:11.743Z,97113.68
2018-10-17T11:45:54.496Z,97111.84
2018-10-17T11:47:30.352Z,97105.53
2018-10-17T11:49:08.307Z,97101.16
2018-10-17T11:50:54.707Z,97109.53
2018-10-17T11:52:34.357Z,97104.89
2018-10-17T11:54:10.279Z,97101.75
2018-10-17T11:55:47.333Z,97098.36
2018-10-17T11:57:24.618Z,97100.77
2018-10-17T11:59:02.085Z,97098.11
2018-10-17T12:00:40.254Z,97090.85
2018-10-17T12:02:16.257Z,97096.37
2018-10-17T12:03:56.043Z,97088.63
2018-10-17T12:05:34.218Z,97086.38
2018-10-17T12:07:11.520Z,97090.37
2018-10-17T12:08:46.683Z,97088.22
2018-10-17T12:10:22.053Z,97085.15
2018-10-17T12:11:58.186Z,97089.70
2018-10-17T12:13:33.945Z,97085.59
2018-10-17T12:15:13.705Z,97085.28
2018-10-17T12:16:49.609Z,97085.97
2018-10-17T12:18:25.590Z,97079.48
2018-10-17T12:20:02.763Z,97078.50
2018-10-17T12:21:38.592Z,97081.09
2018-10-17T12:23:18.213Z,97073.58
2018-10-17T12:25:00.072Z,97077.19
2018-10-17T12:26:37.730Z,97076.30
2018-10-17T12:28:14.551Z,97074.55
2018-10-17T12:29:50.119Z,97073.16
2018-10-17T12:31:34.198Z,97070.33
2018-10-17T12:33:11.617Z,97073.69
2018-10-17T12:34:49.126Z,97074.90
2018-10-17T12:39:06.975Z,97071.58
2018-10-17T12:40:43.804Z,97068.33
2018-10-17T12:42:22.290Z,97066.77
2018-10-17T12:44:01.776Z,97068.36
2018-10-17T12:45:37.357Z,97067.73
2018-10-17T12:47:13.066Z,97071.75
2018-10-17T12:48:50.278Z,97067.05
2018-10-17T12:50:28.660Z,97059.37
2018-10-17T12:52:06.537Z,97063.52
2018-10-17T12:53:42.792Z,97061.45
2018-10-17T12:55:20.539Z,97062.21
2018-10-17T12:56:57.234Z,97062.03
2018-10-17T12:58:33.691Z,97062.67
2018-10-17T13:00:14.553Z,97066.45
2018-10-17T13:01:51.128Z,97068.08
2018-10-17T13:03:28.650Z,97062.86
2018-10-17T13:05:05.448Z,97059.50
2018-10-17T13:06:44.482Z,97056.12
2018-10-17T13:08:21.690Z,97056.94
2018-10-17T13:09:57.733Z,97062.28
2018-10-17T13:11:34.645Z,97053.99
2018-10-17T13:13:11.363Z,97057.33
2018-10-17T13:14:47.279Z,97061.57
2018-10-17T13:16:23.059Z,97054.37
2018-10-17T13:19:42.575Z,97052.52
2018-10-17T13:21:18.826Z,97051.33
2018-10-17T13:22:54.366Z,97052.71
2018-10-17T13:24:30.691Z,97049.17
2018-10-17T13:26:06.873Z,97047.66
2018-10-17T13:27:50.895Z,97044.66
2018-10-17T13:29:27.947Z,97046.38
2018-10-17T13:31:18.049Z,97042.78
2018-10-17T13:32:57.361Z,97042.13
2018-10-17T13:34:34.295Z,97037.34
2018-10-17T13:36:15.049Z,97040.95
2018-10-17T13:37:51.024Z,97042.73
2018-10-17T13:39:27.698Z,97044.69
2018-10-17T13:41:03.271Z,97045.75
2018-10-17T13:42:42.249Z,97051.81
2018-10-17T13:44:18.896Z,97042.50
2018-10-17T13:45:58.804Z,97041.89
2018-10-17T13:47:38.098Z,97044.92
2018-10-17T13:49:18.464Z,97040.25
2018-10-17T13:50:54.436Z,97043.41
2018-10-17T13:52:33.359Z,97046.88
2018-10-17T13:54:12.692Z,97034.97
2018-10-17T13:56:03.333Z,97039.76
2018-10-17T13:57:41.104Z,97037.74
2018-10-17T13:59:19.150Z,97035.69
2018-10-17T14:00:59.292Z,97034.77
2018-10-17T14:02:37.959Z,97035.41
2018-10-17T14:04:17.171Z,97039.83
2018-10-17T14:05:54.901Z,97041.02
2018-10-17T14:07:37.851Z,97041.71
2018-10-17T14:09:19.001Z,97036.32
2018-10-17T14:10:57.878Z,97038.23
2018-10-17T14:12:39.242Z,97043.53
2018-10-17T14:14:17.425Z,97038.80
2018-10-17T14:15:56.063Z,97036.41
2018-10-17T14:17:32.198Z,97037.10
2018-10-17T14:19:07.680Z,97033.41
2018-10-17T14:20:43.979Z,97029.59
2018-10-17T14:22:21.723Z,97029.86
2018-10-17T14:23:58.766Z,97035.47
2018-10-17T14:25:34.813Z,97029.52
2018-10-17T14:27:11.412Z,97029.76
2018-10-17T14:28:48.968Z,97030.31
2018-10-17T14:30:24.892Z,97024.78
2018-10-17T14:34:00.640Z,97023.38
2018-10-17T14:35:38.235Z,97022.63
2018-10-17T14:37:15.049Z,97025.69
2018-10-17T14:38:52.402Z,97021.08
2018-10-17T14:40:31.681Z,97024.84
2018-10-17T14:42:11.416Z,97027.77
2018-10-17T14:43:48.554Z,97027.07
2018-10-17T14:45:24.462Z,97028.02
2018-10-17T14:47:01.099Z,97025.80
2018-10-17T14:48:38.297Z,97030.39
2018-10-17T14:50:18.019Z,97024.28
2018-10-17T14:51:55.216Z,97025.34
2018-10-17T14:53:32.287Z,97020.30
2018-10-17T14:55:11.569Z,97023.95
2018-10-17T14:56:48.546Z,97026.19
2018-10-17T14:58:23.987Z,97021.52
2018-10-17T15:00:03.333Z,97025.12
2018-10-17T15:01:42.584Z,97030.06
2018-10-17T15:05:28.078Z,97028.78
2018-10-17T15:09:04.049Z,97037.09
2018-10-17T15:11:04.552Z,97031.62
2018-10-17T15:12:48.386Z,97034.41
2018-10-17T15:14:26.770Z,97037.78
2018-10-17T15:18:07.284Z,97030.56
2018-10-17T15:19:46.558Z,97036.14
2018-10-17T15:21:27.259Z,97034.69
2018-10-17T15:23:07.992Z,97035.33
2018-10-17T15:24:48.026Z,97036.20
2018-10-17T15:26:24.273Z,97034.56
2018-10-17T15:28:02.958Z,97035.63
2018-10-17T15:29:45.985Z,97035.50
2018-10-17T15:31:25.935Z,97031.27
2018-10-17T15:33:07.794Z,97032.59
2018-10-17T15:34:48.302Z,97029.20
2018-10-17T15:36:26.086Z,97039.82
2018-10-17T15:38:02.046Z,97040.21
2018-10-17T15:39:40.610Z,97039.59
2018-10-17T15:41:18.769Z,97040.88
2018-10-17T15:42:57.829Z,97037.97
2018-10-17T15:44:36.840Z,97041.06
2018-10-17T15:46:24.408Z,97037.79
2018-10-17T15:48:05.599Z,97037.97
2018-10-17T15:49:46.130Z,97042.44
2018-10-17T15:51:24.214Z,97042.58
2018-10-17T15:53:02.456Z,97041.48
2018-10-17T15:54:39.358Z,97046.17
2018-10-17T15:56:17.445Z,97045.06
2018-10-17T15:57:59.625Z,97051.39
2018-10-17T15:59:37.346Z,97047.22
2018-10-17T16:01:18.767Z,97047.49
2018-10-17T16:02:57.053Z,97045.37
2018-10-17T16:04:33.997Z,97045.75
2018-10-17T16:08:07.169Z,97044.73
2018-10-17T16:09:44.415Z,97045.64
2018-10-17T16:11:30.106Z,97047.79
2018-10-17T16:13:09.055Z,97048.81
2018-10-17T16:14:52.672Z,97050.55
2018-10-17T16:16:34.019Z,97055.94
2018-10-17T16:18:14.269Z,97055.55
2018-10-17T16:19:55.143Z,97053.63
2018-10-17T16:21:38.449Z,97056.08
2018-10-17T16:23:23.655Z,97052.37
2018-10-17T16:25:08.482Z,97060.74
2018-10-17T16:26:47.618Z,97059.99
2018-10-17T16:30:14.751Z,97059.66
2018-10-17T16:31:51.837Z,97063.20
2018-10-17T16:33:35.158Z,97059.59
2018-10-17T16:35:16.801Z,97060.89
2018-10-17T16:37:00.214Z,97058.63
2018-10-17T16:38:47.153Z,97064.63
2018-10-17T16:40:24.918Z,97071.78
2018-10-17T16:42:19.853Z,97070.08
2018-10-17T16:44:01.639Z,97073.08
2018-10-17T16:45:41.884Z,97077.25
2018-10-17T16:47:23.104Z,97073.17
2018-10-17T16:49:04.814Z,97075.10
2018-10-17T16:50:44.647Z,97074.37
2018-10-17T16:52:23.963Z,97078.59
2018-10-17T16:54:01.348Z,97084.64
2018-10-17T16:55:39.469Z,97085.12
2018-10-17T16:57:19.091Z,97081.73
2018-10-17T17:01:34.627Z,97090.99
2018-10-17T17:03:21.581Z,97090.82
2018-10-17T17:05:03.543Z,97097.41
2018-10-17T17:07:51.676Z,97101.83
2018-10-17T17:09:32.015Z,97104.99
2018-10-17T17:11:13.388Z,97105.13
2018-10-17T17:12:51.265Z,97115.16
2018-10-17T17:14:29.362Z,97107.63
2018-10-17T17:16:13.599Z,97111.26
2018-10-17T17:19:49.692Z,97120.21
2018-10-17T17:21:34.009Z,97119.30
2018-10-17T17:23:14.571Z,97123.77
2018-10-17T17:24:55.841Z,97123.59
2018-10-17T17:26:52.783Z,97122.00
2018-10-17T17:28:35.642Z,97126.43
2018-10-17T17:30:22.662Z,97124.86
2018-10-17T17:32:08.505Z,97123.48
2018-10-17T17:33:55.151Z,97129.48
2018-10-17T17:35:33.352Z,97131.44
2018-10-17T17:37:12.935Z,97130.59
2018-10-17T17:38:55.802Z,97134.20
2018-10-17T17:40:37.235Z,97129.95
2018-10-17T17:42:19.530Z,97130.19
2018-10-17T17:44:02.629Z,97135.41
2018-10-17T17:45:41.666Z,97138.11
2018-10-17T17:47:21.290Z,97138.64
2018-10-17T17:49:10.546Z,97135.81
2018-10-17T17:50:54.610Z,97137.59
2018-10-17T17:52:33.233Z,97141.73
2018-10-17T17:54:14.238Z,97139.54
2018-10-17T17:55:54.935Z,97142.27
2018-10-17T18:00:43.736Z,97150.37
2018-10-17T18:02:19.772Z,97148.32
2018-10-17T18:03:55.873Z,97154.13
2018-10-17T18:05:32.991Z,97151.05
2018-10-17T18:07:15.726Z,97149.55
2018-10-17T18:08:54.303Z,97149.35
2018-10-17T18:10:31.663Z,97160.09
2018-10-17T18:12:10.368Z,97148.64
2018-10-17T18:13:52.326Z,97150.30
2018-10-17T18:17:25.511Z,97154.51
2018-10-17T18:19:12.363Z,97150.47
2018-10-17T18:21:17.283Z,97154.58
2018-10-17T18:23:01.852Z,97149.61
2018-10-17T18:24:42.353Z,97160.44
2018-10-17T18:26:21.158Z,97162.36
2018-10-17T18:27:57.963Z,97157.37
2018-10-17T18:29:34.939Z,97167.19
2018-10-17T18:31:11.117Z,97166.59
2018-10-17T18:32:48.693Z,97165.68
2018-10-17T18:34:25.859Z,97173.11
2018-10-17T18:36:03.953Z,97175.77
2018-10-17T18:37:42.538Z,97182.22
2018-10-17T18:39:22.413Z,97180.58
2018-10-17T18:41:17.769Z,97182.11
2018-10-17T18:43:12.839Z,97178.63
2018-10-17T18:44:49.102Z,97180.98
2018-10-17T18:46:38.815Z,97182.95
2018-10-17T18:48:18.366Z,97186.20
2018-10-17T18:49:58.394Z,97182.41
2018-10-17T18:51:35.402Z,97187.12
2018-10-17T18:53:16.033Z,97180.05
2018-10-17T18:54:52.511Z,97187.64
2018-10-17T18:58:26.708Z,97185.96
2018-10-17T19:00:06.515Z,97187.34
2018-10-17T19:01:43.501Z,97190.92
2018-10-17T19:05:16.913Z,97197.16
2018-10-17T19:06:53.896Z,97199.05
2018-10-17T19:08:36.564Z,97204.61
2018-10-17T19:10:15.363Z,97199.59
2018-10-17T19:11:54.837Z,97201.16
2018-10-17T19:13:31.713Z,97204.69
2018-10-17T19:15:09.169Z,97208.71
2018-10-17T19:16:45.092Z,97212.80
2018-10-17T19:18:21.340Z,97209.47
2018-10-17T19:19:59.359Z,97213.74
2018-10-17T19:21:37.278Z,97211.94
2018-10-17T19:23:12.386Z,97217.02
2018-10-17T19:24:48.179Z,97217.34
2018-10-17T19:26:25.092Z,97217.48
2018-10-17T19:28:01.616Z,97215.95
2018-10-17T19:29:41.686Z,97221.19
2018-10-17T19:31:19.954Z,97222.11
2018-10-17T19:32:59.736Z,97222.69
2018-10-17T19:34:35.720Z,97226.05
2018-10-17T19:36:12.985Z,97230.52
2018-10-17T19:37:49.555Z,97231.12
2018-10-17T19:39:26.921Z,97229.30
2018-10-17T19:41:04.081Z,97229.14
2018-10-17T19:42:41.098Z,97231.00
2018-10-17T19:44:19.313Z,97232.84
2018-10-17T19:45:55.240Z,97233.00